Time;durP1;ratioP1;P1;durP2;ratioP2;P2;SDS_P1;SDS_P2;PMS_P1;PMS_P2;Temp;Humidity;BMP_temperature;BMP_pressure;BME280_temperature;BME280_humidity;BME280_pressure;Samples;Min_cycle;Max_cycle;Signal;HPM_P1;HPM_P2
2021/08/04 00:26:19;;;;;;;;;10.00;9.75;;;;;19.02;55.46;101013.38;5792861;23;47125;-91
2021/08/04 03:36:04;;;;;;;;;14.75;11.50;;;;;17.57;59.21;100888.31;5199260;23;45524;-84
2021/08/04 03:39:38;;;;;;;;;;;;;;;;;;;;;
2021/08/04 03:42:38;;;;;;;;;10.25;10.25;;;;;17.50;59.57;100892.06;4925885;28;73734;-84
2021/08/04 03:45:51;;;;;;;;;7.50;7.50;;;;;17.60;59.68;100915.69;4962590;28;45273;-84
2021/08/04 04:03:47;;;;;;;;;;;;;;;;;;;;;
2021/08/04 04:10:45;;;;;;;;;8.00;8.00;;;;;17.52;60.90;100933.69;4838169;29;45459;-85
2021/08/04 04:21:22;;;;;;;;;;;;;;;;;;;;;
2021/08/04 05:44:38;;;;;;;;;;;;;;;;;;;;;
2021/08/04 05:51:26;;;;;;;;;;;;;;;;;;;;;
2021/08/04 06:22:34;;;;;;;;;10.00;9.50;;;;;18.93;59.30;100939.88;5646991;22;46700;-91
2021/08/04 06:25:46;;;;;;;;;13.00;12.00;;;;;19.02;58.73;100935.13;4972836;28;46450;-92
2021/08/04 06:28:29;;;;;;;;;14.75;13.75;;;;;19.03;58.91;100928.84;4973763;28;45413;-92
2021/08/04 06:30:54;;;;;;;;;14.50;12.50;;;;;19.09;58.54;100924.19;4961717;28;45433;-90
2021/08/04 06:33:20;;;;;;;;;14.00;14.00;;;;;19.22;58.76;100934.38;4961318;28;45477;-86
2021/08/04 06:36:05;;;;;;;;;15.75;15.00;;;;;19.22;58.52;100934.38;4967601;28;48107;-86
2021/08/04 06:38:31;;;;;;;;;14.50;13.75;;;;;19.23;58.61;100930.81;4954393;28;45443;-85
2021/08/04 06:40:57;;;;;;;;;15.00;13.75;;;;;19.35;58.36;100941.03;4961960;28;45370;-85
2021/08/04 06:43:22;;;;;;;;;14.50;13.00;;;;;19.37;58.01;100931.16;4961517;28;45244;-84
2021/08/04 06:45:48;;;;;;;;;17.25;16.25;;;;;19.51;58.19;100935.97;4969750;28;46087;-83
2021/08/04 06:48:21;;;;;;;;;16.00;15.00;;;;;19.55;57.47;100933.16;4980643;28;45361;-85
2021/08/04 06:50:49;;;;;;;;;13.50;13.00;;;;;19.65;57.34;100933.69;4961599;28;45476;-85
2021/08/04 06:53:14;;;;;;;;;16.25;15.50;;;;;19.63;57.10;100924.84;4962538;28;45587;-89
2021/08/04 06:55:40;;;;;;;;;17.50;16.50;;;;;19.70;57.10;100925.50;4966227;28;48067;-89
2021/08/04 06:58:05;;;;;;;;;16.25;15.75;;;;;19.78;56.98;100926.97;4978079;28;45257;-88
2021/08/04 07:00:41;;;;;;;;;;;;;;;;;;;;;
2021/08/04 07:03:12;;;;;;;;;20.75;19.75;;;;;19.83;56.86;100929.44;4968516;28;74132;-88
2021/08/04 07:05:54;;;;;;;;;17.00;15.75;;;;;19.98;56.84;100942.19;4985536;28;46095;-86
2021/08/04 07:08:19;;;;;;;;;17.50;15.75;;;;;20.05;56.10;100951.72;4979449;28;45420;-88
2021/08/04 07:10:48;;;;;;;;;16.75;14.00;;;;;20.11;56.21;100947.06;4984379;28;44957;-85
2021/08/04 07:13:36;;;;;;;;;18.00;14.75;;;;;20.15;55.82;100938.84;4997800;28;44790;-88
2021/08/04 07:16:02;;;;;;;;;17.00;15.25;;;;;20.26;55.79;100938.41;4999589;28;47394;-90
2021/08/04 07:18:34;;;;;;;;;20.00;17.50;;;;;20.23;55.43;100939.44;4960699;28;45452;-89
2021/08/04 07:20:59;;;;;;;;;19.50;18.25;;;;;20.34;55.59;100952.34;4964850;28;45501;-85
2021/08/04 07:23:34;;;;;;;;;17.75;15.50;;;;;20.32;55.12;100935.50;4960866;28;45548;-89
2021/08/04 07:25:59;;;;;;;;;15.50;14.50;;;;;20.38;55.23;100940.59;4959467;28;47054;-79
2021/08/04 07:28:25;;;;;;;;;15.75;14.75;;;;;20.50;55.20;100939.19;4942981;28;45870;-83
2021/08/04 07:30:50;;;;;;;;;17.00;15.75;;;;;20.62;54.70;100938.72;4976023;28;45537;-82
2021/08/04 07:33:31;;;;;;;;;18.00;16.00;;;;;20.70;54.25;100933.91;4950338;28;45356;-86
2021/08/04 07:35:56;;;;;;;;;14.75;13.25;;;;;20.77;54.33;100939.88;4947429;28;46369;-82
2021/08/04 07:38:22;;;;;;;;;16.75;16.00;;;;;20.80;53.75;100934.41;4963307;28;45309;-82
2021/08/04 07:40:47;;;;;;;;;18.00;16.25;;;;;20.82;53.73;100937.00;4961176;28;45347;-83
2021/08/04 07:43:13;;;;;;;;;13.00;13.00;;;;;20.93;54.11;100937.41;4960231;28;45212;-82
2021/08/04 07:45:38;;;;;;;;;14.75;14.00;;;;;21.01;53.65;100937.94;4960352;28;46042;-82
2021/08/04 07:48:04;;;;;;;;;14.25;13.50;;;;;21.00;52.71;100935.31;4960866;28;45520;-79
2021/08/04 07:50:29;;;;;;;;;13.50;12.50;;;;;21.09;52.02;100950.97;4955565;28;45527;-82
2021/08/04 07:52:55;;;;;;;;;8.50;8.25;;;;;21.05;51.19;100936.84;4961200;28;45326;-80
2021/08/04 07:55:20;;;;;;;;;13.00;12.75;;;;;21.10;50.35;100950.91;4943742;28;47212;-82
2021/08/04 07:57:46;;;;;;;;;11.00;9.75;;;;;21.03;51.31;100937.88;4943252;28;45290;-81
2021/08/04 08:00:12;;;;;;;;;10.25;10.25;;;;;21.07;51.33;100944.84;4967100;28;45331;-83
2021/08/04 08:02:37;;;;;;;;;10.00;10.00;;;;;21.09;50.52;100951.88;4967006;28;45414;-81
2021/08/04 08:05:03;;;;;;;;;8.25;8.25;;;;;21.05;50.63;100949.38;4942985;28;48274;-80
2021/08/04 08:07:29;;;;;;;;;9.50;8.50;;;;;21.06;50.92;100945.75;4957993;28;45428;-80
2021/08/04 08:09:54;;;;;;;;;8.00;8.00;;;;;21.07;49.84;100944.84;4973213;28;45609;-82
2021/08/04 08:12:19;;;;;;;;;8.00;8.00;;;;;21.05;49.94;100942.22;4942875;28;46792;-80
2021/08/04 08:14:45;;;;;;;;;6.00;6.00;;;;;21.13;48.80;100949.91;4960304;28;45536;-80
2021/08/04 08:17:11;;;;;;;;;8.00;6.00;;;;;21.19;48.74;100943.41;4942239;28;46126;-79
2021/08/04 08:19:38;;;;;;;;;9.00;7.75;;;;;21.28;48.85;100940.34;4960463;28;45440;-80
2021/08/04 08:22:04;;;;;;;;;6.25;6.25;;;;;21.34;48.50;100943.59;4964418;28;45462;-80
2021/08/04 08:24:29;;;;;;;;;8.25;7.25;;;;;21.38;47.08;100938.97;4993020;28;47478;-80
2021/08/04 08:26:54;;;;;;;;;9.25;8.25;;;;;21.46;47.05;100936.81;4984746;28;45378;-80
2021/08/04 08:29:20;;;;;;;;;7.67;6.33;;;;;21.58;47.69;100944.31;4979810;28;45814;-80
2021/08/04 08:31:46;;;;;;;;;7.25;6.50;;;;;21.65;47.18;100931.50;4990233;28;45300;-80
2021/08/04 08:34:11;;;;;;;;;7.00;6.50;;;;;21.80;46.42;100932.56;4970184;28;48060;-80
2021/08/04 08:36:38;;;;;;;;;10.50;10.50;;;;;21.78;46.70;100924.63;4969517;28;45509;-80
2021/08/04 08:39:08;;;;;;;;;8.00;8.00;;;;;21.89;47.04;100929.47;4992748;28;45453;-79
2021/08/04 08:41:34;;;;;;;;;7.50;7.00;;;;;21.97;46.85;100935.34;4962125;28;45324;-80
2021/08/04 08:44:00;;;;;;;;;7.75;7.00;;;;;21.99;46.25;100940.59;4986047;28;46191;-80
2021/08/04 08:46:31;;;;;;;;;10.00;8.00;;;;;22.02;46.49;100938.66;4968099;28;46074;-80
2021/08/04 08:48:58;;;;;;;;;8.00;7.00;;;;;22.07;45.97;100922.34;4993539;28;45445;-79
2021/08/04 08:51:25;;;;;;;;;10.00;6.00;;;;;22.14;46.35;100933.66;4978215;28;45373;-79
2021/08/04 08:53:51;;;;;;;;;12.00;10.00;;;;;22.13;46.43;100926.53;4990967;28;45416;-78
2021/08/04 08:56:18;;;;;;;;;9.00;9.00;;;;;22.17;46.14;100938.84;4978878;28;45515;-78
2021/08/04 08:58:48;;;;;;;;;7.50;6.75;;;;;22.16;46.18;100929.06;4961908;28;45548;-80
2021/08/04 09:01:14;;;;;;;;;9.00;8.00;;;;;22.25;45.83;100931.34;4979147;28;45304;-82
2021/08/04 09:03:40;;;;;;;;;7.75;7.75;;;;;22.52;45.37;100944.31;4980471;28;46462;-81
2021/08/04 09:06:05;;;;;;;;;8.75;7.50;;;;;22.61;44.03;100939.38;4979344;28;45436;-82
2021/08/04 09:08:35;;;;;;;;;9.50;7.25;;;;;22.78;44.52;100919.69;4982219;28;45197;-83
2021/08/04 09:11:16;;;;;;;;;7.50;7.50;;;;;23.10;45.09;100922.56;4983217;28;45566;-77
2021/08/04 09:13:44;;;;;;;;;4.00;4.00;;;;;23.29;43.39;100928.66;4977394;28;45344;-81
2021/08/04 09:16:15;;;;;;;;;5.67;5.67;;;;;23.38;42.90;100929.97;4959162;28;45387;-81
2021/08/04 09:18:44;;;;;;;;;8.67;6.33;;;;;23.56;42.84;100933.50;4979528;28;45301;-82
2021/08/04 09:21:20;;;;;;;;;7.00;7.00;;;;;23.63;42.17;100926.84;4980467;28;45482;-84
2021/08/04 09:23:47;;;;;;;;;7.00;6.67;;;;;23.74;42.15;100926.28;4994438;28;45541;-80
2021/08/04 09:26:18;;;;;;;;;7.00;6.33;;;;;23.87;42.01;100932.69;4983484;28;45939;-80
2021/08/04 09:28:54;;;;;;;;;7.25;7.00;;;;;23.92;41.43;100925.25;4982982;28;45609;-80
2021/08/04 09:31:20;;;;;;;;;6.00;6.00;;;;;23.96;41.75;100923.22;4990202;28;45406;-80
2021/08/04 09:33:47;;;;;;;;;8.00;7.50;;;;;24.01;40.39;100921.16;4979576;28;46674;-80
2021/08/04 09:36:25;;;;;;;;;7.33;7.33;;;;;24.05;41.52;100913.75;4980485;28;45381;-80
2021/08/04 09:39:04;;;;;;;;;6.00;6.00;;;;;24.10;40.79;100915.22;5000163;28;45672;-81
2021/08/04 09:41:29;;;;;;;;;5.00;5.00;;;;;24.13;40.96;100909.66;4992232;28;45676;-81
2021/08/04 09:44:07;;;;;;;;;7.00;6.33;;;;;24.20;41.47;100907.50;4979775;28;47164;-82
2021/08/04 09:46:33;;;;;;;;;9.00;8.00;;;;;24.22;39.81;100894.84;4998604;28;45277;-83
2021/08/04 09:49:17;;;;;;;;;8.00;8.00;;;;;24.12;40.65;100896.31;4998635;28;45317;-87
2021/08/04 09:51:43;;;;;;;;;6.67;5.67;;;;;23.99;40.45;100891.63;4997205;28;45779;-81
2021/08/04 09:54:10;;;;;;;;;8.00;7.00;;;;;23.92;40.05;100900.13;4996210;28;46529;-79
2021/08/04 09:57:05;;;;;;;;;6.00;5.00;;;;;23.89;40.55;100894.94;4998798;28;45353;-81
2021/08/04 09:59:34;;;;;;;;;5.33;5.33;;;;;23.86;41.11;100890.59;4974679;28;45334;-80
2021/08/04 10:02:00;;;;;;;;;4.00;4.00;;;;;23.87;40.12;100899.53;4990617;28;46025;-79
2021/08/04 10:04:28;;;;;;;;;8.00;6.33;;;;;23.85;40.71;100890.72;4981744;28;45522;-79
2021/08/04 10:07:11;;;;;;;;;6.00;6.00;;;;;23.93;39.70;100894.69;4999647;28;45337;-80
2021/08/04 10:09:36;;;;;;;;;6.00;5.33;;;;;23.97;40.68;100893.53;4990115;28;45510;-79
2021/08/04 10:12:07;;;;;;;;;7.00;6.00;;;;;24.06;40.38;100894.84;4971001;28;45384;-81
2021/08/04 10:14:35;;;;;;;;;9.00;6.33;;;;;24.11;40.29;100887.41;4987874;28;45719;-76
2021/08/04 10:17:05;;;;;;;;;8.00;7.67;;;;;24.26;40.94;100892.81;4991896;28;45821;-80
2021/08/04 10:19:31;;;;;;;;;8.33;7.00;;;;;24.31;39.78;100882.66;4985452;28;45466;-80
2021/08/04 10:21:57;;;;;;;;;6.67;5.67;;;;;24.36;39.68;100875.19;4967841;28;45582;-80
2021/08/04 10:24:23;;;;;;;;;7.33;7.33;;;;;24.40;39.23;100879.41;4990395;28;46430;-78
2021/08/04 10:26:50;;;;;;;;;6.00;6.00;;;;;24.40;40.05;100876.72;4973702;28;45700;-80
2021/08/04 10:29:20;;;;;;;;;6.67;6.00;;;;;24.43;39.46;100873.84;4997696;28;45431;-79
2021/08/04 10:31:56;;;;;;;;;;;;;;;;;;;;;
2021/08/04 10:34:46;;;;;;;;;;;;;;;;;;;;;
2021/08/04 10:37:33;;;;;;;;;7.00;6.00;;;;;24.40;38.73;100869.53;4986212;28;72675;-82
2021/08/04 10:40:11;;;;;;;;;6.25;6.25;;;;;24.43;38.93;100871.16;4974691;28;45468;-82
2021/08/04 10:42:46;;;;;;;;;6.00;5.25;;;;;24.49;38.79;100872.66;4997071;28;45354;-82
2021/08/04 10:45:24;;;;;;;;;7.25;6.75;;;;;24.46;39.38;100878.22;4985030;28;48398;-84
2021/08/04 10:48:18;;;;;;;;;6.50;6.00;;;;;24.35;39.01;100882.41;4984086;28;45489;-82
2021/08/04 10:51:19;;;;;;;;;8.50;8.50;;;;;24.25;39.26;100889.28;4980924;28;45516;-81
2021/08/04 10:54:22;;;;;;;;;;;;;;;;;;;;;
2021/08/04 10:57:27;;;;;;;;;;;;;;;;;;;;;
2021/08/04 11:00:30;;;;;;;;;;;;;;;;;;;;;
2021/08/04 11:03:16;;;;;;;;;7.67;6.00;;;;;23.85;39.74;100882.66;4995727;28;67790;-83
2021/08/04 11:06:28;;;;;;;;;7.00;7.00;;;;;23.83;39.60;100880.03;4982310;28;45485;-83
2021/08/04 11:09:19;;;;;;;;;7.00;5.33;;;;;23.78;40.08;100890.19;4998426;28;45492;-88
2021/08/04 11:12:04;;;;;;;;;8.00;6.00;;;;;23.71;40.86;100880.69;4956329;28;45215;-86
2021/08/04 11:14:39;;;;;;;;;10.00;8.25;;;;;23.61;41.87;100888.41;4994283;28;45500;-87
2021/08/04 11:17:07;;;;;;;;;8.67;8.67;;;;;23.43;41.92;100876.84;4989941;28;45420;-87
2021/08/04 11:19:59;;;;;;;;;9.50;7.50;;;;;23.32;42.75;100879.28;4988640;28;47301;-85
2021/08/04 11:22:40;;;;;;;;;8.67;8.00;;;;;23.21;43.44;100879.00;4982667;28;45402;-84
2021/08/04 11:25:41;;;;;;;;;10.33;9.33;;;;;23.05;44.41;100879.81;4999286;28;45376;-86
2021/08/04 11:28:30;;;;;;;;;10.25;9.75;;;;;22.97;45.10;100883.88;4990209;28;45600;-84
2021/08/04 11:31:09;;;;;;;;;9.00;8.67;;;;;22.84;46.10;100878.25;4987273;28;45564;-84
2021/08/04 11:33:35;;;;;;;;;11.75;10.25;;;;;22.68;47.22;100875.50;4988288;28;45460;-81
2021/08/04 11:36:04;;;;;;;;;8.50;8.50;;;;;22.59;46.75;100886.72;4986001;28;45484;-80
2021/08/04 11:38:55;;;;;;;;;10.25;10.25;;;;;22.42;47.07;100874.13;4979716;28;45439;-81
2021/08/04 11:41:42;;;;;;;;;9.00;9.00;;;;;22.34;47.65;100874.53;4962964;28;47097;-83
2021/08/04 11:44:18;;;;;;;;;10.75;8.75;;;;;22.26;47.86;100878.56;4986965;28;45364;-82
2021/08/04 11:47:05;;;;;;;;;9.00;9.00;;;;;22.23;47.49;100882.25;4992824;28;45568;-81
2021/08/04 11:49:34;;;;;;;;;12.50;11.75;;;;;22.17;48.15;100875.34;4985445;28;45863;-81
2021/08/04 11:52:11;;;;;;;;;7.50;7.50;;;;;22.14;47.97;100874.66;4980861;28;47561;-83
2021/08/04 11:54:52;;;;;;;;;8.25;8.25;;;;;22.09;48.37;100874.88;4992081;28;45290;-84
2021/08/04 11:57:29;;;;;;;;;10.00;8.25;;;;;22.01;47.95;100880.59;4961287;28;45274;-80
2021/08/04 12:00:01;;;;;;;;;14.75;10.00;;;;;21.90;48.45;100872.22;4991802;28;45417;-83
2021/08/04 12:03:29;;;;;;;;;10.00;8.00;;;;;21.87;48.80;100880.44;4981400;28;45630;-84
2021/08/04 12:06:15;;;;;;;;;5.00;5.00;;;;;21.74;48.90;100872.09;4884491;29;45579;-83
2021/08/04 12:08:40;;;;;;;;;11.50;7.25;;;;;21.72;49.10;100873.13;4975250;28;45467;-83
2021/08/04 12:11:06;;;;;;;;;9.00;7.50;;;;;21.59;49.59;100864.78;4968534;28;45492;-81
2021/08/04 12:13:31;;;;;;;;;8.50;8.50;;;;;21.61;49.61;100872.75;4992220;28;45462;-81
2021/08/04 12:16:00;;;;;;;;;10.75;9.75;;;;;21.59;49.77;100862.97;4979726;28;45378;-77
2021/08/04 12:18:26;;;;;;;;;9.00;8.50;;;;;21.69;50.28;100852.69;4987510;28;45696;-79
2021/08/04 12:20:53;;;;;;;;;9.25;8.50;;;;;21.78;50.20;100844.22;4990842;28;45658;-83
2021/08/04 12:23:28;;;;;;;;;12.50;9.50;;;;;21.90;49.36;100839.19;4964982;28;46925;-79
2021/08/04 12:25:59;;;;;;;;;20.75;19.25;;;;;22.03;50.56;100840.31;4989673;28;45626;-79
2021/08/04 12:28:31;;;;;;;;;9.00;9.00;;;;;22.13;49.88;100824.63;4987313;28;45544;-81
2021/08/04 12:31:36;;;;;;;;;9.00;8.00;;;;;22.31;49.86;100814.81;4974712;28;46264;-81
2021/08/04 12:34:07;;;;;;;;;7.50;7.25;;;;;22.41;50.64;100808.03;4950505;28;48174;-79
2021/08/04 12:37:50;;;;;;;;;;;;;;;;;;;;;
2021/08/04 12:39:42;;;;;;;;;6.67;6.67;;;;;22.49;48.33;100829.97;4955970;28;45563;-83
2021/08/04 12:42:13;;;;;;;;;6.00;6.00;;;;;22.46;48.10;100836.34;4990643;28;45611;-82
2021/08/04 12:44:38;;;;;;;;;7.00;5.00;;;;;22.51;47.81;100844.16;4988807;28;45499;-78
2021/08/04 12:47:10;;;;;;;;;7.25;6.00;;;;;22.53;47.98;100852.13;4991890;28;45481;-79
2021/08/04 12:49:35;;;;;;;;;4.67;4.00;;;;;22.52;47.24;100847.72;4976701;28;45509;-82
2021/08/04 12:52:01;;;;;;;;;6.00;5.00;;;;;22.57;47.46;100865.31;4989794;28;45491;-84
2021/08/04 12:54:28;;;;;;;;;4.67;4.67;;;;;22.60;47.50;100869.66;4989232;28;46292;-81
2021/08/04 12:56:55;;;;;;;;;5.33;4.33;;;;;22.60;47.06;100875.03;4992059;28;45441;-80
2021/08/04 12:59:22;;;;;;;;;6.33;6.33;;;;;22.62;47.45;100868.63;4998771;28;45399;-82
2021/08/04 13:02:08;;;;;;;;;5.00;5.00;;;;;22.72;47.40;100876.19;4998146;28;45651;-82
2021/08/04 13:05:25;;;;;;;;;6.00;6.00;;;;;22.75;47.04;100867.97;4994303;28;46536;-85
2021/08/04 13:07:50;;;;;;;;;8.00;5.33;;;;;22.82;47.49;100874.75;4995295;28;45490;-83
2021/08/04 13:10:35;;;;;;;;;7.67;6.00;;;;;22.96;47.37;100877.63;4979097;28;45564;-84
2021/08/04 13:13:02;;;;;;;;;6.33;6.33;;;;;23.14;47.48;100880.28;4993398;28;45415;-79
2021/08/04 13:15:40;;;;;;;;;6.33;4.33;;;;;23.22;46.77;100872.66;4982899;28;46080;-79
2021/08/04 13:18:06;;;;;;;;;6.33;6.00;;;;;23.31;46.19;100873.03;4985766;28;45369;-78
2021/08/04 13:20:34;;;;;;;;;6.00;5.00;;;;;23.38;46.70;100864.63;4992653;28;45404;-79
2021/08/04 13:23:02;;;;;;;;;4.67;4.67;;;;;23.55;45.78;100873.50;5002666;28;45849;-79
2021/08/04 13:25:38;;;;;;;;;9.00;6.00;;;;;23.67;45.41;100863.00;4986059;28;47303;-80
2021/08/04 13:28:11;;;;;;;;;6.00;6.00;;;;;23.70;45.60;100858.31;4978077;28;45580;-81
2021/08/04 13:30:57;;;;;;;;;5.00;5.00;;;;;23.93;45.53;100861.56;4999245;28;45373;-81
2021/08/04 13:33:24;;;;;;;;;5.67;5.67;;;;;24.33;45.11;100856.53;4982910;28;45452;-81
2021/08/04 13:35:53;;;;;;;;;6.00;6.00;;;;;24.83;44.51;100860.69;4979572;28;47091;-81
2021/08/04 13:38:19;;;;;;;;;5.33;5.33;;;;;25.36;43.78;100867.28;4992546;28;45535;-80
2021/08/04 13:40:45;;;;;;;;;7.00;5.67;;;;;25.79;42.57;100864.50;4982556;28;45490;-81
2021/08/04 13:43:10;;;;;;;;;7.00;7.00;;;;;26.17;41.70;100867.41;5000112;28;45555;-80
2021/08/04 13:45:36;;;;;;;;;3.67;3.67;;;;;26.51;41.58;100859.72;4982648;28;46174;-81
2021/08/04 13:48:02;;;;;;;;;4.00;4.00;;;;;26.75;40.32;100859.00;4997889;28;45451;-81
2021/08/04 13:50:28;;;;;;;;;5.33;5.33;;;;;26.78;39.87;100856.09;4987672;28;45267;-81
2021/08/04 13:52:56;;;;;;;;;6.33;5.67;;;;;26.72;39.78;100857.38;4999959;28;45375;-80
2021/08/04 13:55:24;;;;;;;;;7.00;7.00;;;;;26.59;39.14;100859.22;4976151;28;47186;-81
2021/08/04 13:57:50;;;;;;;;;5.67;5.67;;;;;26.35;39.61;100859.03;4990388;28;45451;-80
2021/08/04 14:00:19;;;;;;;;;5.33;5.33;;;;;26.17;39.22;100862.00;4999192;28;45475;-81
2021/08/04 14:02:45;;;;;;;;;8.00;7.00;;;;;25.96;39.25;100858.06;4986505;28;45676;-80
2021/08/04 14:05:12;;;;;;;;;7.33;7.33;;;;;25.72;39.38;100855.97;4999474;28;45422;-81
2021/08/04 14:07:38;;;;;;;;;5.67;5.67;;;;;25.45;39.37;100858.63;5002125;28;45495;-81
2021/08/04 14:10:05;;;;;;;;;7.33;7.00;;;;;25.25;39.82;100857.19;4982447;28;45369;-81
2021/08/04 14:12:30;;;;;;;;;6.33;5.33;;;;;24.95;40.96;100857.25;4999582;28;45327;-81
2021/08/04 14:14:57;;;;;;;;;6.00;6.00;;;;;24.69;41.61;100850.78;4994192;28;46282;-79
2021/08/04 14:17:24;;;;;;;;;7.33;7.00;;;;;24.48;42.02;100857.47;4999763;28;45318;-79
2021/08/04 14:19:49;;;;;;;;;7.00;7.00;;;;;24.34;42.39;100859.13;4973237;28;45369;-80
2021/08/04 14:22:15;;;;;;;;;6.00;6.00;;;;;24.14;42.38;100854.06;4987371;28;45353;-81
2021/08/04 14:24:41;;;;;;;;;7.67;6.67;;;;;23.92;42.63;100860.69;4964177;28;48330;-82
2021/08/04 14:27:06;;;;;;;;;8.75;8.75;;;;;23.73;42.91;100847.41;4977610;28;45674;-81
2021/08/04 14:29:32;;;;;;;;;9.33;8.67;;;;;23.69;42.99;100850.34;4969949;28;45464;-83
2021/08/04 14:31:58;;;;;;;;;5.00;5.00;;;;;23.55;44.01;100843.94;4978698;28;45452;-82
2021/08/04 14:34:24;;;;;;;;;8.00;7.33;;;;;23.47;43.73;100838.13;4968742;28;46982;-80
2021/08/04 14:36:49;;;;;;;;;8.00;8.00;;;;;23.37;44.13;100839.59;4964053;28;45443;-80
2021/08/04 14:39:15;;;;;;;;;10.33;6.33;;;;;23.37;44.32;100836.03;4966000;28;45362;-82
2021/08/04 14:41:41;;;;;;;;;10.00;7.67;;;;;23.39;44.20;100839.47;4978951;28;45535;-80
2021/08/04 14:44:06;;;;;;;;;9.00;6.00;;;;;23.38;44.46;100841.31;4958795;28;47363;-82
2021/08/04 14:46:34;;;;;;;;;6.00;5.00;;;;;23.40;43.26;100839.41;4977208;28;45511;-82
2021/08/04 14:48:59;;;;;;;;;9.33;8.33;;;;;23.49;44.06;100827.28;4966959;28;45365;-82
2021/08/04 14:51:25;;;;;;;;;9.00;9.00;;;;;23.56;43.82;100825.97;4975208;28;45509;-82
2021/08/04 14:53:50;;;;;;;;;9.00;7.00;;;;;23.66;44.44;100824.50;4979327;28;45458;-82
2021/08/04 14:56:16;;;;;;;;;8.00;8.00;;;;;23.81;42.96;100832.66;4958611;28;45383;-81
2021/08/04 14:58:42;;;;;;;;;8.25;8.25;;;;;23.97;43.21;100836.19;4979544;28;45569;-81
2021/08/04 15:01:07;;;;;;;;;7.67;6.67;;;;;24.28;43.07;100837.09;4979621;28;45587;-81
2021/08/04 15:03:33;;;;;;;;;5.33;5.00;;;;;24.58;42.42;100824.50;4979282;28;45997;-82
2021/08/04 15:05:58;;;;;;;;;6.67;6.67;;;;;24.77;41.28;100829.63;4977719;28;45524;-82
2021/08/04 15:08:24;;;;;;;;;9.00;7.67;;;;;24.79;41.40;100825.03;4978852;28;45904;-81
2021/08/04 15:10:52;;;;;;;;;8.33;7.33;;;;;24.86;41.50;100818.31;4979437;28;45405;-83
2021/08/04 15:13:18;;;;;;;;;6.33;6.00;;;;;24.96;40.76;100815.00;4971069;28;45378;-82
2021/08/04 15:15:43;;;;;;;;;8.67;8.67;;;;;25.02;40.84;100818.22;4972272;28;46520;-82
2021/08/04 15:18:09;;;;;;;;;6.67;4.33;;;;;25.13;39.88;100819.31;4961501;28;45240;-82
2021/08/04 15:20:34;;;;;;;;;6.67;5.33;;;;;25.14;39.85;100818.38;4972943;28;45350;-81
2021/08/04 15:22:59;;;;;;;;;6.33;6.33;;;;;25.38;39.47;100813.28;4964995;28;47360;-80
2021/08/04 15:25:25;;;;;;;;;4.33;4.33;;;;;25.68;39.34;100810.41;4974590;28;45325;-80
2021/08/04 15:27:50;;;;;;;;;5.00;4.00;;;;;25.98;39.36;100803.97;4973912;28;45379;-80
2021/08/04 15:30:16;;;;;;;;;5.00;5.00;;;;;26.31;39.25;100811.63;4976910;28;45443;-79
2021/08/04 15:32:41;;;;;;;;;3.67;3.33;;;;;26.50;38.52;100793.16;4978761;28;45358;-80
2021/08/04 15:35:07;;;;;;;;;6.00;5.00;;;;;26.79;38.31;100801.09;4975660;28;45347;-79
2021/08/04 15:37:33;;;;;;;;;5.67;5.00;;;;;27.11;38.17;100806.91;4948575;28;45480;-87
2021/08/04 15:39:58;;;;;;;;;3.00;3.00;;;;;27.34;37.63;100789.03;4963158;28;45899;-81
2021/08/04 15:42:24;;;;;;;;;5.00;3.67;;;;;27.60;36.83;100783.53;4960676;28;48555;-79
2021/08/04 15:44:50;;;;;;;;;6.00;5.00;;;;;28.17;36.50;100787.38;4973236;28;45405;-79
2021/08/04 15:47:17;;;;;;;;;4.00;3.00;;;;;28.77;34.33;100783.59;4978605;28;45571;-79
2021/08/04 15:49:43;;;;;;;;;2.33;2.33;;;;;28.84;34.31;100786.69;4974129;28;46032;-79
2021/08/04 15:52:08;;;;;;;;;6.67;5.67;;;;;28.96;34.17;100785.69;4975925;28;46292;-79
2021/08/04 15:54:33;;;;;;;;;3.67;2.67;;;;;29.74;34.15;100786.63;4969997;28;45309;-79
2021/08/04 15:56:59;;;;;;;;;3.67;3.00;;;;;29.75;32.87;100791.94;4978948;28;45581;-80
2021/08/04 15:59:24;;;;;;;;;5.00;5.00;;;;;29.28;32.40;100783.13;4977588;28;45321;-79
2021/08/04 16:01:51;;;;;;;;;4.33;4.00;;;;;28.82;32.46;100786.81;4954025;28;46003;-80
2021/08/04 16:04:16;;;;;;;;;3.33;3.33;;;;;28.31;33.33;100776.38;4985206;28;45353;-82
2021/08/04 16:06:42;;;;;;;;;4.00;3.00;;;;;27.91;33.74;100785.69;4955052;28;45188;-82
2021/08/04 16:09:07;;;;;;;;;5.33;5.00;;;;;27.45;33.76;100782.81;4960830;28;45452;-82
2021/08/04 16:11:33;;;;;;;;;4.33;3.67;;;;;27.06;34.91;100785.59;4949166;28;47637;-78
2021/08/04 16:13:58;;;;;;;;;5.33;5.33;;;;;26.74;35.27;100778.94;4978720;28;45327;-78
2021/08/04 16:16:25;;;;;;;;;3.33;3.33;;;;;26.55;35.59;100779.38;4952083;28;45492;-78
2021/08/04 16:18:51;;;;;;;;;4.67;4.67;;;;;26.38;36.08;100772.41;4966170;28;45286;-80
2021/08/04 16:21:16;;;;;;;;;4.00;4.00;;;;;26.25;36.33;100775.13;4981932;28;46228;-78
2021/08/04 16:23:42;;;;;;;;;4.00;4.00;;;;;26.15;36.47;100771.31;4989968;28;45455;-78
2021/08/04 16:26:07;;;;;;;;;3.00;3.00;;;;;26.03;36.57;100783.81;4977803;28;45445;-77
2021/08/04 16:28:33;;;;;;;;;2.67;2.67;;;;;25.81;36.18;100773.56;4995429;28;45373;-78
2021/08/04 16:30:59;;;;;;;;;3.00;3.00;;;;;25.72;37.16;100775.06;5000684;28;46355;-78
2021/08/04 16:33:24;;;;;;;;;4.33;4.33;;;;;25.51;37.64;100766.56;4997258;28;45291;-79
2021/08/04 16:35:50;;;;;;;;;3.00;3.00;;;;;25.44;37.81;100770.59;4982244;28;45243;-79
2021/08/04 16:38:15;;;;;;;;;2.67;2.67;;;;;25.39;37.52;100783.50;4987972;28;45790;-78
2021/08/04 16:40:41;;;;;;;;;4.67;3.33;;;;;25.28;37.57;100781.53;4996220;28;45239;-78
2021/08/04 16:43:06;;;;;;;;;3.00;3.00;;;;;25.22;37.56;100787.31;4998482;28;45433;-78
2021/08/04 16:45:32;;;;;;;;;2.67;2.67;;;;;25.15;37.59;100783.28;4980940;28;45245;-78
2021/08/04 16:47:57;;;;;;;;;2.33;2.33;;;;;25.06;37.72;100778.47;5001610;28;45185;-82
2021/08/04 16:50:26;;;;;;;;;5.00;5.00;;;;;24.95;38.19;100778.28;4969818;28;48033;-85
2021/08/04 16:52:51;;;;;;;;;4.67;3.33;;;;;24.89;38.17;100781.38;4978884;28;45516;-82
2021/08/04 16:55:17;;;;;;;;;6.00;6.00;;;;;24.79;38.53;100773.84;4992230;28;45435;-82
2021/08/04 16:57:43;;;;;;;;;4.00;4.00;;;;;24.76;38.68;100776.75;4972140;28;45477;-82
2021/08/04 17:00:16;;;;;;;;;61.00;49.25;;;;;24.69;38.66;100782.59;4980608;28;46439;-80
2021/08/04 17:02:42;;;;;;;;;9.00;9.00;;;;;24.60;38.95;100773.28;4978241;28;45421;-81
2021/08/04 17:05:08;;;;;;;;;4.00;4.00;;;;;24.56;39.03;100769.88;4990013;28;45440;-82
2021/08/04 17:07:37;;;;;;;;;4.00;4.00;;;;;24.54;38.98;100766.44;4987149;28;45255;-80
2021/08/04 17:10:02;;;;;;;;;4.33;4.00;;;;;24.57;38.84;100765.41;4999516;28;45353;-81
2021/08/04 17:12:28;;;;;;;;;4.00;3.00;;;;;24.54;38.51;100765.56;4975664;28;45453;-78
2021/08/04 17:14:53;;;;;;;;;2.67;2.67;;;;;24.49;38.64;100775.78;4994506;28;45494;-80
2021/08/04 17:17:19;;;;;;;;;4.67;4.33;;;;;24.41;39.27;100760.91;4985163;28;45427;-82
2021/08/04 17:19:46;;;;;;;;;4.00;3.00;;;;;24.38;38.79;100758.41;4979733;28;47489;-79
2021/08/04 17:22:13;;;;;;;;;4.33;4.33;;;;;24.37;39.48;100761.19;4978850;28;45480;-78
2021/08/04 17:24:39;;;;;;;;;5.33;4.00;;;;;24.34;39.63;100758.69;4979784;28;45362;-78
2021/08/04 17:27:08;;;;;;;;;6.67;5.67;;;;;24.30;39.42;100757.13;4982841;28;45352;-83
2021/08/04 17:29:34;;;;;;;;;4.33;4.00;;;;;24.23;39.45;100763.88;4984417;28;46415;-79
2021/08/04 17:32:00;;;;;;;;;3.67;3.33;;;;;24.19;39.86;100760.47;4986038;28;45617;-80
2021/08/04 17:34:29;;;;;;;;;3.33;3.33;;;;;24.15;39.65;100762.50;4986258;28;46767;-81
2021/08/04 17:37:45;;;;;;;;;;;;;;;;;;;;;
2021/08/04 17:40:39;;;;;;;;;4.67;3.67;;;;;23.98;39.76;100757.28;4935873;28;76659;-81
2021/08/04 17:43:54;;;;;;;;;4.00;3.00;;;;;23.92;39.84;100769.25;4938836;28;45431;-88
2021/08/04 19:04:20;;;;;;;;;;;;;;;;;;;;;
2021/08/04 19:07:33;;;;;;;;;1.00;1.00;;;;;22.17;46.91;100805.63;4977774;28;45487;-88
2021/08/04 19:10:27;;;;;;;;;5.00;4.00;;;;;22.12;47.25;100801.44;4975119;28;45588;-89
2021/08/04 19:13:26;;;;;;;;;;;;;;;;;;;;;
2021/08/04 19:16:01;;;;;;;;;42.75;35.50;;;;;22.08;48.04;100805.22;4976209;28;72825;-90